Time;durP1;ratioP1;P1;durP2;ratioP2;P2;SDS_P1;SDS_P2;PMS_P1;PMS_P2;Temp;Humidity;BMP_temperature;BMP_pressure;BME280_temperature;BME280_humidity;BME280_pressure;Samples;Min_cycle;Max_cycle;Signal;HPM_P1;HPM_P2
2022/10/05 00:01:44;;;;;;;24.63;11.52;;;;;;;12.57;100.00;101459.59;4999464;28;20045;-75
2022/10/05 00:04:14;;;;;;;20.58;9.80;;;;;;;12.59;100.00;101453.66;5006156;28;20045;-75
2022/10/05 00:06:49;;;;;;;20.27;9.68;;;;;;;12.58;100.00;101450.06;5004330;28;20735;-74
2022/10/05 00:09:19;;;;;;;20.45;9.45;;;;;;;12.62;100.00;101450.06;5001676;28;20041;-75
2022/10/05 00:11:47;;;;;;;22.30;9.18;;;;;;;12.63;100.00;101443.34;5003700;28;20038;-74
2022/10/05 00:14:24;;;;;;;24.00;10.57;;;;;;;12.64;100.00;101447.69;5006827;28;20184;-76
2022/10/05 00:16:51;;;;;;;19.30;8.75;;;;;;;12.65;100.00;101441.75;5004851;28;20052;-76
2022/10/05 00:19:24;;;;;;;24.27;10.48;;;;;;;12.64;100.00;101440.19;5003147;28;20242;-75
2022/10/05 00:21:51;;;;;;;20.55;9.43;;;;;;;12.67;100.00;101439.41;5006381;28;20135;-76
2022/10/05 00:24:19;;;;;;;23.33;10.30;;;;;;;12.69;100.00;101437.00;5004849;28;20054;-74
2022/10/05 00:26:45;;;;;;;21.58;10.02;;;;;;;12.69;100.00;101431.44;5008107;28;20753;-73
2022/10/05 00:29:22;;;;;;;22.67;11.10;;;;;;;12.68;100.00;101426.28;5007875;28;20064;-72
2022/10/05 00:31:49;;;;;;;23.50;12.93;;;;;;;12.72;100.00;101427.09;5004330;28;20073;-73
2022/10/05 00:34:16;;;;;;;21.52;11.43;;;;;;;12.74;100.00;101430.28;5002492;28;20950;-76
2022/10/05 00:36:44;;;;;;;19.08;9.45;;;;;;;12.78;100.00;101431.06;5002324;28;20046;-73
2022/10/05 00:39:11;;;;;;;23.98;10.32;;;;;;;12.79;100.00;101427.88;5006610;28;20073;-75
2022/10/05 00:42:09;;;;;;;25.00;11.13;;;;;;;12.79;100.00;101433.44;5007571;28;20049;-75
2022/10/05 00:44:43;;;;;;;21.65;9.50;;;;;;;12.83;100.00;101439.78;5005099;28;20045;-74
2022/10/05 00:47:21;;;;;;;21.58;10.65;;;;;;;12.85;100.00;101436.63;5008876;28;20049;-74
2022/10/05 00:49:48;;;;;;;24.42;9.90;;;;;;;12.88;100.00;101441.38;5004716;28;20111;-74
2022/10/05 00:52:30;;;;;;;20.83;9.48;;;;;;;12.91;100.00;101446.16;5002361;28;20470;-74
2022/10/05 00:55:16;;;;;;;20.95;9.45;;;;;;;12.93;100.00;101447.34;5007020;28;20045;-74
2022/10/05 00:58:05;;;;;;;19.33;9.18;;;;;;;12.95;100.00;101424.72;5006142;28;20627;-74
2022/10/05 01:00:42;;;;;;;19.63;9.55;;;;;;;13.00;100.00;101432.72;5002739;28;20587;-74
2022/10/05 01:03:22;;;;;;;23.02;9.52;;;;;;;13.02;100.00;101431.13;5007524;28;20045;-75
2022/10/05 01:06:02;;;;;;;21.55;9.48;;;;;;;12.99;100.00;101420.00;5004827;28;20573;-75
2022/10/05 01:08:49;;;;;;;21.75;9.43;;;;;;;13.10;100.00;101425.56;4998079;28;20046;-76
2022/10/05 01:11:26;;;;;;;22.02;9.70;;;;;;;13.14;100.00;101424.38;5003763;28;20593;-73
2022/10/05 01:14:24;;;;;;;21.33;9.20;;;;;;;13.13;100.00;101416.44;5003572;28;20063;-74
2022/10/05 01:16:53;;;;;;;21.77;9.35;;;;;;;13.15;100.00;101406.50;5002439;28;20052;-73
2022/10/05 01:19:25;;;;;;;23.92;9.73;;;;;;;13.16;100.00;101401.75;5005427;28;20045;-74
2022/10/05 01:22:26;;;;;;;21.83;9.27;;;;;;;13.21;100.00;101409.66;5003996;28;20049;-73
2022/10/05 01:25:05;;;;;;;22.63;9.32;;;;;;;13.22;100.00;101402.94;4999143;28;20054;-74
2022/10/05 01:27:53;;;;;;;24.45;8.63;;;;;;;13.20;100.00;101408.91;5000210;28;20123;-73
2022/10/05 01:30:21;;;;;;;24.40;9.48;;;;;;;13.19;100.00;101404.50;5013898;28;20065;-74
2022/10/05 01:33:09;;;;;;;17.67;8.68;;;;;;;13.18;100.00;101400.16;5027444;28;20045;-73
2022/10/05 01:35:39;;;;;;;19.13;9.35;;;;;;;13.22;100.00;101400.94;5027970;28;20053;-74
2022/10/05 01:38:14;;;;;;;19.63;9.38;;;;;;;13.26;100.00;101396.16;5030996;28;20045;-73
2022/10/05 01:40:47;;;;;;;;;;;;;;;13.29;100.00;101400.94;5022891;28;20045;-74
2022/10/05 01:43:26;;;;;;;21.70;9.00;;;;;;;13.31;100.00;101394.97;5029199;28;19971;-74
2022/10/05 01:46:05;;;;;;;22.95;8.48;;;;;;;13.31;100.00;101397.75;5029364;28;20049;-74
2022/10/05 01:48:53;;;;;;;21.40;9.40;;;;;;;13.32;100.00;101400.13;5030500;28;20505;-73
2022/10/05 01:51:44;;;;;;;19.27;9.15;;;;;;;13.32;100.00;101377.91;5029977;28;20057;-73
2022/10/05 01:54:29;;;;;;;18.27;8.50;;;;;;;13.32;100.00;101371.53;5029610;28;20049;-73
2022/10/05 01:57:14;;;;;;;20.33;8.48;;;;;;;13.29;100.00;101372.34;5029331;28;20068;-75
2022/10/05 02:00:04;;;;;;;19.25;7.97;;;;;;;13.28;100.00;101367.97;5028881;28;20048;-73
2022/10/05 02:02:35;;;;;;;20.17;8.57;;;;;;;13.31;100.00;101361.63;5027256;28;20057;-74
2022/10/05 02:05:10;;;;;;;19.73;8.27;;;;;;;13.29;100.00;101375.91;5028626;28;20053;-74
2022/10/05 02:07:47;;;;;;;19.90;8.63;;;;;;;13.32;100.00;101372.34;5022407;28;20497;-75
2022/10/05 02:10:35;;;;;;;22.08;8.98;;;;;;;13.38;100.00;101369.94;5025043;28;20654;-73
2022/10/05 02:13:16;;;;;;;19.85;9.00;;;;;;;13.44;100.00;101371.94;5029657;28;20528;-73
2022/10/05 02:15:55;;;;;;;20.48;9.13;;;;;;;13.48;100.00;101369.94;5029728;28;20057;-74
2022/10/05 02:18:29;;;;;;;17.45;8.35;;;;;;;13.54;100.00;101376.66;5030301;28;20486;-73
2022/10/05 02:20:57;;;;;;;19.55;9.77;;;;;;;13.58;100.00;101369.09;5028421;28;20061;-72
2022/10/05 02:23:29;;;;;;;18.83;8.68;;;;;;;13.59;100.00;101370.69;5029702;28;20072;-73
2022/10/05 02:25:57;;;;;;;19.30;9.23;;;;;;;13.57;100.00;101367.50;5028446;28;20045;-74
2022/10/05 02:28:36;;;;;;;19.30;7.97;;;;;;;13.58;100.00;101369.09;5030117;28;20141;-73
2022/10/05 02:31:14;;;;;;;19.42;8.77;;;;;;;13.58;100.00;101373.88;5028937;28;20072;-72
2022/10/05 02:33:40;;;;;;;24.55;8.77;;;;;;;13.58;100.00;101366.31;5028415;28;20053;-74
2022/10/05 02:36:15;;;;;;;22.65;9.05;;;;;;;13.56;100.00;101365.91;5025684;28;20037;-74
2022/10/05 02:38:58;;;;;;;21.85;9.43;;;;;;;13.53;100.00;101363.16;5029837;28;20057;-75
2022/10/05 02:41:39;;;;;;;20.55;8.63;;;;;;;13.52;100.00;101358.78;5029055;28;20053;-73
2022/10/05 02:44:20;;;;;;;18.25;8.70;;;;;;;13.49;100.00;101348.47;5029194;28;20050;-73
2022/10/05 02:47:23;;;;;;;17.95;8.75;;;;;;;13.48;100.00;101353.25;5029537;28;20049;-73
2022/10/05 02:50:13;;;;;;;18.88;9.05;;;;;;;13.48;100.00;101338.53;5023725;28;20050;-73
2022/10/05 02:53:08;;;;;;;21.48;9.70;;;;;;;13.44;100.00;101344.13;5025390;28;20049;-73
2022/10/05 02:56:01;;;;;;;22.20;9.85;;;;;;;13.45;100.00;101342.94;5022959;28;20045;-73
2022/10/05 02:58:37;;;;;;;18.02;8.73;;;;;;;13.37;100.00;101338.59;5029670;28;20045;-73
2022/10/05 03:01:26;;;;;;;21.63;8.50;;;;;;;13.31;100.00;101331.84;5028860;28;20046;-74
2022/10/05 03:04:08;;;;;;;22.98;9.50;;;;;;;13.33;100.00;101339.78;5029817;28;20079;-74
2022/10/05 03:06:46;;;;;;;22.88;10.10;;;;;;;13.30;100.00;101343.38;5027545;28;20052;-72
2022/10/05 03:09:16;;;;;;;20.67;9.68;;;;;;;13.30;100.00;101335.84;5026109;28;20137;-74
2022/10/05 03:11:50;;;;;;;17.92;9.23;;;;;;;13.29;100.00;101331.44;5027609;28;20517;-75
2022/10/05 03:14:30;;;;;;;21.23;8.35;;;;;;;13.25;100.00;101321.53;5028065;28;20115;-75
2022/10/05 03:17:12;;;;;;;25.10;9.75;;;;;;;13.25;100.00;101319.53;5028982;28;20049;-73
2022/10/05 03:19:45;;;;;;;23.83;10.27;;;;;;;13.23;100.00;101316.38;5019078;28;20069;-73
2022/10/05 03:22:41;;;;;;;20.92;9.10;;;;;;;13.23;100.00;101310.81;5020191;28;20049;-73
2022/10/05 03:25:19;;;;;;;19.13;8.90;;;;;;;13.17;100.00;101315.22;5020399;28;20053;-74
2022/10/05 03:28:07;;;;;;;18.08;8.65;;;;;;;13.13;100.00;101310.84;5028866;28;20499;-73
2022/10/05 03:30:48;;;;;;;20.42;8.80;;;;;;;13.08;100.00;101309.28;5028880;28;20525;-74
2022/10/05 03:33:24;;;;;;;23.45;10.68;;;;;;;13.02;100.00;101302.53;5020995;28;20045;-75
2022/10/05 03:36:09;;;;;;;22.60;10.45;;;;;;;13.06;100.00;101302.53;5028595;28;20115;-73
2022/10/05 03:39:00;;;;;;;22.38;9.73;;;;;;;13.06;100.00;101296.97;5026292;28;20065;-72
2022/10/05 03:41:36;;;;;;;22.08;9.82;;;;;;;13.04;100.00;101284.25;5022520;28;20099;-74
2022/10/05 03:44:05;;;;;;;20.20;8.60;;;;;;;13.02;100.00;101292.22;5027279;28;20061;-74
2022/10/05 03:47:06;;;;;;;20.23;9.23;;;;;;;13.05;100.00;101290.63;5027755;28;20104;-75
2022/10/05 03:49:48;;;;;;;20.52;9.82;;;;;;;13.05;100.00;101282.28;5026864;28;20057;-72
2022/10/05 03:52:35;;;;;;;21.75;10.27;;;;;;;13.19;100.00;101285.03;5026922;28;20049;-74
2022/10/05 03:55:15;;;;;;;18.65;8.88;;;;;;;13.22;100.00;101284.22;5027988;28;20422;-72
2022/10/05 03:57:43;;;;;;;23.38;9.05;;;;;;;13.32;100.00;101277.84;5028078;28;20049;-72
2022/10/05 04:00:30;;;;;;;23.63;10.07;;;;;;;13.46;100.00;101280.56;5025875;28;20057;-73
2022/10/05 04:03:22;;;;;;;22.67;11.18;;;;;;;13.52;100.00;101276.19;5025361;28;20049;-73
2022/10/05 04:05:54;;;;;;;19.85;7.15;;;;;;;13.57;100.00;101272.97;5024843;28;20080;-73
2022/10/05 04:08:39;;;;;;;18.95;8.85;;;;;;;13.68;100.00;101275.72;5028138;28;20049;-73
2022/10/05 04:11:25;;;;;;;21.63;9.50;;;;;;;13.75;100.00;101273.69;5027300;28;20045;-71
2022/10/05 04:14:02;;;;;;;17.80;9.23;;;;;;;13.79;100.00;101273.66;5024650;28;20410;-72
2022/10/05 04:16:38;;;;;;;19.33;8.57;;;;;;;13.84;100.00;101276.81;5020856;28;20053;-74
2022/10/05 04:19:20;;;;;;;20.92;9.27;;;;;;;13.88;100.00;101274.00;5028354;28;20061;-74
2022/10/05 04:22:13;;;;;;;19.25;9.43;;;;;;;13.97;100.00;101274.38;5027560;28;20057;-73
2022/10/05 04:24:47;;;;;;;20.25;7.65;;;;;;;13.99;100.00;101278.31;5022500;28;20502;-74
2022/10/05 04:27:22;;;;;;;20.23;9.02;;;;;;;14.05;100.00;101275.91;5026589;28;20053;-74
2022/10/05 04:30:24;;;;;;;21.55;8.77;;;;;;;14.13;100.00;101272.66;5025212;28;20061;-73
2022/10/05 04:32:58;;;;;;;16.48;7.10;;;;;;;14.15;100.00;101277.81;5006861;28;20498;-73
2022/10/05 04:35:52;;;;;;;20.40;8.25;;;;;;;14.22;100.00;101272.19;5027005;28;20152;-74
2022/10/05 04:38:35;;;;;;;21.77;8.48;;;;;;;14.31;100.00;101273.34;5027639;28;20049;-74
2022/10/05 04:41:29;;;;;;;24.45;9.25;;;;;;;14.35;100.00;101276.13;5023194;28;20042;-73
2022/10/05 04:44:32;;;;;;;14.20;5.65;;;;;;;14.33;100.00;101275.72;5025784;28;20048;-71
2022/10/05 04:47:05;;;;;;;22.10;8.43;;;;;;;14.42;100.00;101274.06;5021409;28;20123;-73
2022/10/05 04:50:02;;;;;;;19.80;8.02;;;;;;;14.45;100.00;101269.66;5019605;28;20475;-73
2022/10/05 04:53:14;;;;;;;17.60;8.48;;;;;;;14.53;100.00;101280.34;5027075;28;20056;-73
2022/10/05 04:55:56;;;;;;;21.25;9.20;;;;;;;14.60;100.00;101285.03;5002856;28;20050;-74
2022/10/05 04:58:49;;;;;;;10.02;4.35;;;;;;;14.55;100.00;101283.50;5022978;28;20053;-74
2022/10/05 05:01:33;;;;;;;20.70;8.65;;;;;;;14.64;100.00;101278.25;5001747;28;20053;-74
2022/10/05 05:04:18;;;;;;;20.60;7.95;;;;;;;14.60;100.00;101280.28;5023234;28;20052;-71
2022/10/05 05:07:20;;;;;;;17.35;8.52;;;;;;;14.66;100.00;101278.63;5027454;28;20041;-75
2022/10/05 05:10:11;;;;;;;21.42;7.20;;;;;;;14.62;100.00;101286.22;5021715;28;20049;-74
2022/10/05 05:12:50;;;;;;;19.65;8.48;;;;;;;14.71;100.00;101285.75;5027465;28;20045;-72
2022/10/05 05:15:41;;;;;;;11.93;5.03;;;;;;;14.63;100.00;101287.81;5031336;28;20494;-73
2022/10/05 05:18:44;;;;;;;21.30;8.98;;;;;;;14.76;100.00;101282.53;5029939;28;20121;-73
2022/10/05 05:21:23;;;;;;;19.08;8.23;;;;;;;14.70;100.00;101281.38;5030737;28;20050;-72
2022/10/05 05:24:28;;;;;;;20.15;8.18;;;;;;;14.72;100.00;101285.31;5024080;28;20391;-73
2022/10/05 05:27:09;;;;;;;22.00;9.63;;;;;;;14.84;100.00;101284.03;5024357;28;20060;-73
2022/10/05 05:30:13;;;;;;;12.50;5.70;;;;;;;14.70;100.00;101275.81;5030570;28;20053;-74
2022/10/05 05:32:58;;;;;;;17.30;7.80;;;;;;;14.83;100.00;101277.69;5030078;28;20119;-71
2022/10/05 05:35:50;;;;;;;21.58;8.20;;;;;;;14.84;100.00;101275.69;5027888;28;20449;-73
2022/10/05 05:38:38;;;;;;;11.73;4.82;;;;;;;14.77;100.00;101270.97;5026254;28;20363;-73
2022/10/05 05:41:35;;;;;;;19.77;9.00;;;;;;;14.90;100.00;101272.03;5016120;28;20046;-75
2022/10/05 05:44:02;;;;;;;7.43;3.03;;;;;;;14.77;100.00;101273.75;5030694;28;20099;-72
2022/10/05 05:46:51;;;;;;;21.95;8.82;;;;;;;14.90;100.00;101271.25;5028484;28;20111;-74
2022/10/05 05:49:51;;;;;;;18.42;7.88;;;;;;;14.92;100.00;101280.00;5030914;28;20490;-75
2022/10/05 05:52:38;;;;;;;21.05;8.93;;;;;;;14.94;100.00;101277.56;5024818;28;20541;-75
2022/10/05 05:55:23;;;;;;;20.00;7.63;;;;;;;14.96;100.00;101273.16;5030250;28;20053;-74
2022/10/05 05:58:16;;;;;;;18.40;7.22;;;;;;;14.98;100.00;101275.53;5030712;28;20506;-74
2022/10/05 06:00:59;;;;;;;20.08;7.00;;;;;;;15.04;100.00;101271.09;5012336;28;20112;-73
2022/10/05 06:03:39;;;;;;;16.20;7.40;;;;;;;15.09;100.00;101262.28;5031719;28;20099;-75
2022/10/05 06:06:14;;;;;;;17.98;7.18;;;;;;;15.14;100.00;101276.56;5023751;28;20490;-74
2022/10/05 06:08:46;;;;;;;13.60;5.43;;;;;;;15.08;100.00;101278.22;5030422;28;20774;-73
2022/10/05 06:11:15;;;;;;;18.83;6.85;;;;;;;15.16;100.00;101270.56;5018072;28;20304;-74
2022/10/05 06:13:42;;;;;;;5.15;3.13;;;;;;;15.18;100.00;101280.09;5029076;28;20114;-74
2022/10/05 06:16:12;;;;;;;18.15;6.53;;;;;;;15.26;100.00;101284.38;5028863;28;20465;-74
2022/10/05 06:18:42;;;;;;;16.17;6.63;;;;;;;15.28;100.00;101281.19;5028559;28;20053;-73
2022/10/05 06:21:25;;;;;;;14.02;6.20;;;;;;;15.31;100.00;101285.94;5023929;28;20053;-74
2022/10/05 06:24:01;;;;;;;14.70;6.57;;;;;;;15.35;100.00;101286.66;5022245;28;20509;-73
2022/10/05 06:27:05;;;;;;;14.43;6.43;;;;;;;15.36;100.00;101289.06;5034885;28;20049;-74
2022/10/05 06:30:05;;;;;;;19.58;7.47;;;;;;;15.47;100.00;101277.81;5029010;28;20056;-74
2022/10/05 06:32:50;;;;;;;17.58;7.15;;;;;;;15.48;100.00;101291.34;5027998;28;20057;-71
2022/10/05 06:35:28;;;;;;;9.95;4.57;;;;;;;15.48;100.00;101284.19;5023413;28;20045;-73
2022/10/05 06:38:07;;;;;;;13.93;6.43;;;;;;;15.59;100.00;101285.59;5027933;28;20149;-72
2022/10/05 06:40:36;;;;;;;11.18;4.38;;;;;;;15.61;100.00;101282.41;5028824;28;20068;-71
2022/10/05 06:43:26;;;;;;;12.52;4.70;;;;;;;15.66;100.00;101287.53;5032888;28;20095;-71
2022/10/05 06:46:07;;;;;;;9.75;4.10;;;;;;;15.69;100.00;101295.06;5026394;28;20521;-71
2022/10/05 06:48:52;;;;;;;7.35;3.10;;;;;;;15.77;100.00;101294.56;5022837;28;20152;-72
2022/10/05 06:51:22;;;;;;;7.17;3.57;;;;;;;15.78;100.00;101293.34;5029219;28;20048;-70
2022/10/05 06:54:13;;;;;;;11.77;5.22;;;;;;;15.84;100.00;101285.28;5029161;28;20318;-73
2022/10/05 06:56:50;;;;;;;14.18;4.35;;;;;;;15.95;100.00;101283.13;5029598;28;20088;-73
2022/10/05 06:59:26;;;;;;;12.45;3.58;;;;;;;16.01;100.00;101287.03;5028887;28;20045;-72
2022/10/05 07:02:20;;;;;;;4.53;2.38;;;;;;;16.00;100.00;101296.63;5019131;28;20111;-72
2022/10/05 07:04:51;;;;;;;11.82;5.22;;;;;;;16.11;100.00;101300.06;5027844;28;20053;-72
2022/10/05 07:07:29;;;;;;;8.25;3.65;;;;;;;16.08;100.00;101286.94;5027410;28;20080;-71
2022/10/05 07:10:34;;;;;;;13.38;5.30;;;;;;;16.16;100.00;101283.63;5035379;28;20049;-73
2022/10/05 07:13:19;;;;;;;8.25;2.03;;;;;;;16.12;100.00;101287.69;4973907;28;20046;-70
2022/10/05 07:16:10;;;;;;;7.63;3.57;;;;;;;16.16;100.00;101277.28;5028137;28;20053;-73
2022/10/05 07:18:43;;;;;;;10.40;4.75;;;;;;;16.33;100.00;101284.59;5028350;28;20055;-69
2022/10/05 07:21:34;;;;;;;2.83;1.48;;;;;;;16.26;100.00;101285.47;5028606;28;20053;-72
2022/10/05 07:24:39;;;;;;;9.32;3.90;;;;;;;16.27;100.00;101295.41;5026380;28;20053;-73
2022/10/05 07:27:08;;;;;;;13.90;4.72;;;;;;;16.32;100.00;101292.16;5019013;28;20041;-73
2022/10/05 07:29:47;;;;;;;4.60;2.00;;;;;;;16.33;100.00;101290.16;5029216;28;20126;-72
2022/10/05 07:32:27;;;;;;;9.20;2.47;;;;;;;16.37;100.00;101288.09;5024666;28;20618;-73
2022/10/05 07:35:08;;;;;;;6.60;2.17;;;;;;;16.39;100.00;101285.66;5028367;28;20056;-73
2022/10/05 07:37:54;;;;;;;8.63;3.38;;;;;;;16.34;100.00;101297.31;5028569;28;20526;-71
2022/10/05 07:40:31;;;;;;;8.13;3.65;;;;;;;16.51;100.00;101296.28;5022541;28;20677;-71
2022/10/05 07:43:02;;;;;;;13.40;5.30;;;;;;;16.50;100.00;101297.50;5027016;28;20049;-71
2022/10/05 07:45:45;;;;;;;3.63;1.80;;;;;;;16.44;100.00;101299.19;5026412;28;21647;-71
2022/10/05 07:48:23;;;;;;;7.55;2.97;;;;;;;16.36;100.00;101300.47;5027579;28;20056;-71
2022/10/05 07:51:05;;;;;;;6.50;2.63;;;;;;;16.45;100.00;101295.97;5028206;28;20057;-71
2022/10/05 07:53:36;;;;;;;7.13;2.53;;;;;;;16.48;100.00;101299.94;5022128;28;20107;-71
2022/10/05 07:56:19;;;;;;;12.43;4.22;;;;;;;16.59;100.00;101306.13;5031360;28;20119;-71
2022/10/05 07:58:56;;;;;;;7.22;3.25;;;;;;;16.47;100.00;101298.34;5027493;28;20052;-71
2022/10/05 08:01:28;;;;;;;9.52;4.03;;;;;;;16.69;100.00;101296.78;5027142;28;20502;-70
2022/10/05 08:04:01;;;;;;;9.30;2.70;;;;;;;16.57;100.00;101309.34;5025814;28;20049;-72
2022/10/05 08:06:34;;;;;;;7.57;2.72;;;;;;;16.62;100.00;101296.91;5027256;28;20056;-71
2022/10/05 08:09:19;;;;;;;10.02;3.85;;;;;;;16.66;100.00;101304.00;5027635;28;20568;-72
2022/10/05 08:11:54;;;;;;;11.27;4.75;;;;;;;16.83;100.00;101310.50;5022898;28;20350;-71
2022/10/05 08:14:36;;;;;;;6.90;2.15;;;;;;;16.77;100.00;101301.81;5025323;28;20533;-73
2022/10/05 08:17:14;;;;;;;12.18;4.35;;;;;;;16.83;100.00;101304.91;5024054;28;20426;-70
2022/10/05 08:19:50;;;;;;;11.80;3.60;;;;;;;16.85;100.00;101303.28;5024028;28;20068;-73
2022/10/05 08:22:24;;;;;;;5.72;2.65;;;;;;;16.72;100.00;101307.09;5024169;28;20056;-70
2022/10/05 08:24:57;;;;;;;13.45;5.05;;;;;;;16.91;100.00;101300.78;5023178;28;20049;-71
2022/10/05 08:27:38;;;;;;;16.85;5.07;;;;;;;16.95;100.00;101293.13;5025465;28;20052;-70
2022/10/05 08:30:09;;;;;;;10.20;3.45;;;;;;;16.90;100.00;101296.41;5025968;28;20601;-70
2022/10/05 08:33:01;;;;;;;4.97;1.85;;;;;;;16.84;100.00;101309.31;5025405;28;20053;-72
2022/10/05 08:35:38;;;;;;;7.47;3.53;;;;;;;16.92;100.00;101300.38;5018769;28;20073;-72
2022/10/05 08:38:17;;;;;;;12.88;4.85;;;;;;;17.00;100.00;101295.44;5024665;28;20053;-71
2022/10/05 08:41:31;;;;;;;9.52;3.20;;;;;;;16.94;100.00;101306.31;5023519;28;20045;-73
2022/10/05 08:44:09;;;;;;;10.02;3.53;;;;;;;17.00;100.00;101296.22;4942770;29;20047;-74
2022/10/05 08:47:14;;;;;;;8.73;3.35;;;;;;;17.04;100.00;101293.38;5021233;28;20057;-72
2022/10/05 08:50:12;;;;;;;5.60;2.25;;;;;;;17.01;100.00;101300.59;5005066;28;20057;-72
2022/10/05 08:52:51;;;;;;;3.42;2.00;;;;;;;17.19;100.00;101303.06;4984208;28;20049;-72
2022/10/05 08:55:45;;;;;;;12.73;4.40;;;;;;;17.27;100.00;101296.09;4994735;28;20842;-73
2022/10/05 08:58:26;;;;;;;12.63;5.13;;;;;;;17.24;100.00;101291.38;4994474;28;21021;-73
2022/10/05 09:01:20;;;;;;;13.93;3.85;;;;;;;17.29;100.00;101288.91;4993570;28;20057;-72
2022/10/05 09:03:59;;;;;;;6.47;3.33;;;;;;;17.32;100.00;101293.59;4994020;28;20053;-73
2022/10/05 09:06:50;;;;;;;10.27;4.43;;;;;;;17.41;100.00;101287.44;4996913;28;20045;-73
2022/10/05 09:09:56;;;;;;;6.75;2.10;;;;;;;17.28;100.00;101283.72;4997337;28;20050;-73
2022/10/05 09:12:46;;;;;;;13.35;5.22;;;;;;;17.53;100.00;101286.84;4993489;28;20806;-72
2022/10/05 09:15:36;;;;;;;;;;;;;;;17.47;100.00;101291.34;4995745;28;20049;-72
2022/10/05 09:18:23;;;;;;;12.25;2.85;;;;;;;17.41;100.00;101271.44;4981815;28;19921;-72
2022/10/05 09:20:52;;;;;;;8.30;3.42;;;;;;;17.53;100.00;101287.63;5003209;28;20049;-74
2022/10/05 09:23:34;;;;;;;10.95;4.07;;;;;;;17.62;100.00;101270.28;5001677;28;20042;-72
2022/10/05 09:26:25;;;;;;;7.60;2.75;;;;;;;17.59;100.00;101288.69;5000046;28;20056;-73
2022/10/05 09:28:53;;;;;;;3.80;2.00;;;;;;;17.62;100.00;101281.47;5000921;28;20550;-72
2022/10/05 09:31:39;;;;;;;6.22;3.03;;;;;;;17.72;100.00;101261.63;4987251;28;20296;-74
2022/10/05 09:34:20;;;;;;;8.13;3.08;;;;;;;17.71;100.00;101273.25;4994679;28;20049;-74
2022/10/05 09:37:29;;;;;;;5.78;2.17;;;;;;;17.76;100.00;101269.97;4996497;28;20615;-73
2022/10/05 09:40:34;;;;;;;11.57;4.07;;;;;;;17.90;100.00;101266.84;4991661;28;20854;-74
2022/10/05 09:43:08;;;;;;;5.30;2.75;;;;;;;17.90;100.00;101272.44;4990805;28;20050;-74
2022/10/05 09:45:55;;;;;;;8.38;2.92;;;;;;;17.94;100.00;101267.53;4998227;28;20372;-74
2022/10/05 09:48:52;;;;;;;7.95;3.50;;;;;;;18.02;100.00;101263.34;4971611;28;20049;-74
2022/10/05 09:51:22;;;;;;;11.15;4.60;;;;;;;18.16;100.00;101260.25;4997583;28;20045;-73
2022/10/05 09:53:57;;;;;;;9.88;4.40;;;;;;;18.10;100.00;101273.19;5000826;28;20057;-72
2022/10/05 09:56:42;;;;;;;6.82;2.03;;;;;;;18.09;100.00;101268.03;5004615;28;20123;-73
2022/10/05 09:59:42;;;;;;;6.43;2.75;;;;;;;18.19;100.00;101247.38;5005041;28;20210;-72
2022/10/05 10:02:22;;;;;;;4.45;2.10;;;;;;;18.19;100.00;101258.59;4998416;28;20053;-72
2022/10/05 10:05:21;;;;;;;3.65;2.20;;;;;;;18.35;100.00;101250.97;4996682;28;20622;-73
2022/10/05 10:08:08;;;;;;;10.75;2.95;;;;;;;18.44;100.00;101242.78;4995496;28;20923;-73
2022/10/05 10:10:51;;;;;;;7.18;2.30;;;;;;;18.41;100.00;101243.66;4997094;28;20057;-73
2022/10/05 10:13:20;;;;;;;5.68;2.80;;;;;;;18.35;100.00;101261.41;4999895;28;20049;-72
2022/10/05 10:16:07;;;;;;;8.80;2.70;;;;;;;18.40;100.00;101239.28;5002673;28;20898;-72
2022/10/05 10:18:48;;;;;;;6.13;2.20;;;;;;;18.51;100.00;101253.00;5003600;28;20049;-73
2022/10/05 10:21:29;;;;;;;5.32;1.48;;;;;;;18.59;100.00;101246.78;4996813;28;20829;-73
2022/10/05 10:24:15;;;;;;;8.95;3.85;;;;;;;18.68;100.00;101251.78;5002673;28;20057;-72
2022/10/05 10:26:54;;;;;;;6.28;1.95;;;;;;;18.66;100.00;101245.84;5008106;28;20111;-73
2022/10/05 10:29:44;;;;;;;11.90;4.70;;;;;;;18.65;100.00;101238.63;4998280;28;20091;-73
2022/10/05 10:32:32;;;;;;;12.32;4.45;;;;;;;18.73;100.00;101245.66;4995976;28;20053;-73
2022/10/05 10:35:20;;;;;;;9.68;3.20;;;;;;;18.70;100.00;101244.50;4994042;28;20071;-73
2022/10/05 10:38:11;;;;;;;10.23;2.55;;;;;;;18.69;100.00;101240.13;4991691;28;20250;-72
2022/10/05 10:41:13;;;;;;;6.47;2.85;;;;;;;18.67;100.00;101241.78;4996144;28;20826;-72
2022/10/05 10:44:17;;;;;;;2.63;1.05;;;;;;;18.80;100.00;101242.66;4970847;28;20061;-73
2022/10/05 10:47:06;;;;;;;12.65;4.35;;;;;;;19.01;100.00;101245.69;5001920;28;20930;-72
2022/10/05 10:50:03;;;;;;;9.43;3.97;;;;;;;19.16;100.00;101240.44;5002662;28;20060;-73
2022/10/05 10:52:56;;;;;;;8.90;3.80;;;;;;;19.03;100.00;101246.00;4997962;28;20049;-73
2022/10/05 10:55:32;;;;;;;6.15;2.83;;;;;;;18.81;100.00;101244.22;5010022;28;20560;-72
2022/10/05 10:58:23;;;;;;;8.43;2.88;;;;;;;18.82;100.00;101240.19;4999445;28;20045;-73
2022/10/05 11:01:15;;;;;;;4.57;2.33;;;;;;;18.94;100.00;101231.06;4998545;28;20052;-71
2022/10/05 11:04:12;;;;;;;7.63;3.42;;;;;;;19.13;100.00;101230.91;4997207;28;20092;-74
2022/10/05 11:07:08;;;;;;;3.88;2.03;;;;;;;19.23;100.00;101229.03;4994907;28;20853;-72
2022/10/05 11:10:12;;;;;;;5.78;2.10;;;;;;;19.34;100.00;101221.13;5001421;28;20053;-71
2022/10/05 11:13:00;;;;;;;7.63;2.08;;;;;;;19.17;100.00;101220.38;5003424;28;20835;-71
2022/10/05 11:15:33;;;;;;;3.75;1.95;;;;;;;19.18;100.00;101235.97;4993540;28;20053;-74
2022/10/05 11:18:24;;;;;;;6.05;2.15;;;;;;;19.23;100.00;101204.56;4992681;28;20158;-73
2022/10/05 11:21:11;;;;;;;5.25;2.17;;;;;;;19.16;100.00;101207.56;4997626;28;20087;-72
2022/10/05 11:24:03;;;;;;;5.25;2.78;;;;;;;19.44;100.00;101198.34;4992085;28;20057;-71
2022/10/05 11:27:03;;;;;;;6.57;2.67;;;;;;;19.52;100.00;101188.50;5005622;28;20824;-72
2022/10/05 11:30:03;;;;;;;5.95;1.92;;;;;;;19.81;100.00;101191.22;5000128;28;20053;-73
2022/10/05 11:32:30;;;;;;;5.65;2.75;;;;;;;19.95;97.65;101216.81;5005486;28;20131;-74
2022/10/05 11:35:27;;;;;;;4.03;1.63;;;;;;;20.36;95.73;101162.53;5006693;28;20064;-74
2022/10/05 11:38:27;;;;;;;10.30;3.85;;;;;;;21.14;92.21;101163.38;5006506;28;20581;-74
2022/10/05 11:40:56;;;;;;;3.17;1.52;;;;;;;21.05;90.01;101158.47;5000316;28;20474;-73
2022/10/05 11:43:23;;;;;;;4.50;2.35;;;;;;;21.35;88.69;101163.34;5005046;28;20053;-71
2022/10/05 11:45:49;;;;;;;3.80;1.95;;;;;;;21.45;86.83;101167.00;5008729;28;20119;-72
2022/10/05 11:48:24;;;;;;;5.93;2.33;;;;;;;20.97;87.26;101168.41;5009425;28;20056;-73
2022/10/05 11:51:09;;;;;;;;;;;;;;;21.39;87.01;101143.53;5010134;28;20049;-71
2022/10/05 11:53:44;;;;;;;7.40;2.10;;;;;;;21.08;88.30;101145.50;5006755;28;19924;-70
2022/10/05 11:56:26;;;;;;;;;;;;;;;21.46;86.45;101132.75;5015185;28;20045;-72
2022/10/05 11:59:00;;;;;;;4.55;2.20;;;;;;;21.53;85.74;101126.06;5008693;28;19962;-72
2022/10/05 12:01:56;;;;;;;9.23;2.97;;;;;;;21.81;84.99;101116.50;5004816;28;20856;-74
2022/10/05 12:04:28;;;;;;;3.45;1.55;;;;;;;21.77;83.73;101119.44;4989395;28;20041;-72
2022/10/05 12:06:54;;;;;;;4.38;2.00;;;;;;;22.22;81.49;101127.25;5009141;28;20053;-72
2022/10/05 12:09:31;;;;;;;3.25;1.95;;;;;;;22.34;82.43;101106.59;4995119;28;20157;-71
2022/10/05 12:12:00;;;;;;;3.58;1.65;;;;;;;22.23;78.80;101103.44;5001501;28;20061;-73
2022/10/05 12:14:46;;;;;;;6.57;3.10;;;;;;;22.42;78.15;101113.50;5006523;28;20103;-72
2022/10/05 12:17:29;;;;;;;7.50;2.50;;;;;;;22.66;77.27;101111.66;5006194;28;20056;-72
2022/10/05 12:20:01;;;;;;;8.55;1.90;;;;;;;22.65;76.30;101091.09;5010243;28;20057;-72
2022/10/05 12:22:38;;;;;;;6.43;1.85;;;;;;;22.53;76.48;101102.56;5005219;28;20057;-72